EWB weather

New Bedford Regional Airport
New Bedford, Massachusetts, United States

Public forecast

Using degrees Fahrenheit for public forecast. Weather courtesy of forecast.io.

METAR (pilot weather report)

Retrieved 2019/07/20 15:53 UTC (1 hour ago):

KEWB 201553Z 29006KT 10SM CLR 33/25 A2980 RMK AO2 SLP089 T03330250

TAF (pilot weather forecast)

Closest forecast is Cape Cod Coast Guard Air Station, 19.6 nm (36.2 km) E. Retrieved 2019/07/20 12:22 UTC (5 hours ago):

TAF KFMH 201120Z 2012/2112 27006KT P6SM SCT200 FM201700 23012KT P6SM FEW250 FM210500 24006KT P6SM FEW200